Terminal Aerodrome Forecast
Issued by NWS

Home | Current Version | Previous Version | Text Only | Print | Product List | Glossary On
Versions: 1 2 3 4 5 6 7 8 9 10 11 12 13 14 15 16 17 18 19 20 21 22 23
578
FTUS41 KPBZ 042333
TAFFKL
TAF
KFKL 042333Z 0500/0524 20003KT P6SM VCSH BKN060
     FM050400 VRB04KT P6SM VCSH OVC025
     FM051000 VRB04KT 4SM -SHRA OVC012
     FM051600 03005KT P6SM -SHRA OVC025
      AMD LTD TO CLD VIS AND WIND=

USA.gov is the U.S. government's official web portal to all federal, state and local government web resources and services.